sensor_id;sensor_type;location;lat;lon;timestamp;P1;durP1;ratioP1;P2;durP2;ratioP2
29422;SDS011;16399;51.686;8.684;2023-05-10T00:01:52;15.25;;;11.65;;
29422;SDS011;16399;51.686;8.684;2023-05-10T00:04:55;16.73;;;12.55;;
29422;SDS011;16399;51.686;8.684;2023-05-10T00:07:57;14.33;;;11.43;;
29422;SDS011;16399;51.686;8.684;2023-05-10T00:10:59;14.10;;;11.20;;
29422;SDS011;16399;51.686;8.684;2023-05-10T00:14:02;17.27;;;12.63;;
29422;SDS011;16399;51.686;8.684;2023-05-10T00:17:04;17.32;;;12.45;;
29422;SDS011;16399;51.686;8.684;2023-05-10T00:20:07;18.77;;;12.65;;
29422;SDS011;16399;51.686;8.684;2023-05-10T00:23:09;16.60;;;12.43;;
29422;SDS011;16399;51.686;8.684;2023-05-10T00:26:11;19.75;;;13.35;;
29422;SDS011;16399;51.686;8.684;2023-05-10T00:29:14;17.27;;;12.55;;
29422;SDS011;16399;51.686;8.684;2023-05-10T00:32:16;18.40;;;12.95;;
29422;SDS011;16399;51.686;8.684;2023-05-10T00:35:18;16.42;;;12.13;;
29422;SDS011;16399;51.686;8.684;2023-05-10T00:38:22;17.42;;;12.30;;
29422;SDS011;16399;51.686;8.684;2023-05-10T00:41:25;18.35;;;12.95;;
29422;SDS011;16399;51.686;8.684;2023-05-10T00:44:27;16.48;;;12.18;;
29422;SDS011;16399;51.686;8.684;2023-05-10T00:47:29;17.57;;;13.38;;
29422;SDS011;16399;51.686;8.684;2023-05-10T00:50:32;19.00;;;13.03;;
29422;SDS011;16399;51.686;8.684;2023-05-10T00:53:35;17.95;;;12.93;;
29422;SDS011;16399;51.686;8.684;2023-05-10T00:56:38;16.82;;;12.33;;
29422;SDS011;16399;51.686;8.684;2023-05-10T00:59:40;17.77;;;13.65;;
29422;SDS011;16399;51.686;8.684;2023-05-10T01:02:44;17.17;;;12.53;;
29422;SDS011;16399;51.686;8.684;2023-05-10T01:05:47;17.77;;;13.00;;
29422;SDS011;16399;51.686;8.684;2023-05-10T01:08:49;15.88;;;12.05;;
29422;SDS011;16399;51.686;8.684;2023-05-10T01:11:52;17.70;;;11.68;;
29422;SDS011;16399;51.686;8.684;2023-05-10T01:14:55;16.52;;;12.25;;
29422;SDS011;16399;51.686;8.684;2023-05-10T01:17:58;16.20;;;11.88;;
29422;SDS011;16399;51.686;8.684;2023-05-10T01:24:27;17.50;;;12.15;;
29422;SDS011;16399;51.686;8.684;2023-05-10T01:35:12;11.00;;;7.72;;
29422;SDS011;16399;51.686;8.684;2023-05-10T01:38:38;11.00;;;7.40;;
29422;SDS011;16399;51.686;8.684;2023-05-10T01:41:08;9.48;;;6.47;;
29422;SDS011;16399;51.686;8.684;2023-05-10T01:48:06;5.67;;;3.45;;
29422;SDS011;16399;51.686;8.684;2023-05-10T01:51:10;8.30;;;2.85;;
29422;SDS011;16399;51.686;8.684;2023-05-10T01:54:13;6.17;;;2.98;;
29422;SDS011;16399;51.686;8.684;2023-05-10T01:57:18;8.05;;;4.40;;
29422;SDS011;16399;51.686;8.684;2023-05-10T02:00:21;6.87;;;4.05;;
29422;SDS011;16399;51.686;8.684;2023-05-10T02:03:24;7.62;;;4.60;;
29422;SDS011;16399;51.686;8.684;2023-05-10T02:06:28;7.47;;;4.22;;
29422;SDS011;16399;51.686;8.684;2023-05-10T02:09:32;7.20;;;4.05;;
29422;SDS011;16399;51.686;8.684;2023-05-10T02:12:36;7.55;;;4.45;;
29422;SDS011;16399;51.686;8.684;2023-05-10T02:15:40;8.05;;;4.37;;
29422;SDS011;16399;51.686;8.684;2023-05-10T02:18:44;8.35;;;4.50;;
29422;SDS011;16399;51.686;8.684;2023-05-10T02:21:48;9.73;;;4.65;;
29422;SDS011;16399;51.686;8.684;2023-05-10T02:24:52;7.42;;;4.60;;
29422;SDS011;16399;51.686;8.684;2023-05-10T02:27:57;10.68;;;4.35;;
29422;SDS011;16399;51.686;8.684;2023-05-10T02:31:01;6.87;;;4.20;;
29422;SDS011;16399;51.686;8.684;2023-05-10T02:34:05;7.25;;;4.58;;
29422;SDS011;16399;51.686;8.684;2023-05-10T02:37:09;12.33;;;5.25;;
29422;SDS011;16399;51.686;8.684;2023-05-10T02:40:12;8.75;;;5.10;;
29422;SDS011;16399;51.686;8.684;2023-05-10T02:43:16;9.35;;;4.80;;
29422;SDS011;16399;51.686;8.684;2023-05-10T02:46:23;9.88;;;4.80;;
29422;SDS011;16399;51.686;8.684;2023-05-10T02:49:25;7.30;;;4.33;;
29422;SDS011;16399;51.686;8.684;2023-05-10T02:52:29;8.15;;;3.87;;
29422;SDS011;16399;51.686;8.684;2023-05-10T02:55:35;6.22;;;3.60;;
29422;SDS011;16399;51.686;8.684;2023-05-10T02:58:38;9.15;;;4.03;;
29422;SDS011;16399;51.686;8.684;2023-05-10T03:01:41;5.80;;;3.33;;
29422;SDS011;16399;51.686;8.684;2023-05-10T03:04:43;5.70;;;3.45;;
29422;SDS011;16399;51.686;8.684;2023-05-10T03:07:45;5.55;;;3.20;;
29422;SDS011;16399;51.686;8.684;2023-05-10T03:10:53;5.75;;;3.20;;
29422;SDS011;16399;51.686;8.684;2023-05-10T03:14:01;4.58;;;2.80;;
29422;SDS011;16399;51.686;8.684;2023-05-10T03:17:11;5.58;;;3.52;;
29422;SDS011;16399;51.686;8.684;2023-05-10T03:20:35;5.47;;;3.58;;
29422;SDS011;16399;51.686;8.684;2023-05-10T03:23:47;7.05;;;3.55;;
29422;SDS011;16399;51.686;8.684;2023-05-10T03:26:55;6.45;;;3.67;;
29422;SDS011;16399;51.686;8.684;2023-05-10T03:29:59;5.53;;;3.70;;
29422;SDS011;16399;51.686;8.684;2023-05-10T03:33:05;5.45;;;3.62;;
29422;SDS011;16399;51.686;8.684;2023-05-10T03:36:08;5.90;;;3.90;;
29422;SDS011;16399;51.686;8.684;2023-05-10T03:39:11;6.12;;;4.10;;
29422;SDS011;16399;51.686;8.684;2023-05-10T03:42:13;6.33;;;4.47;;
29422;SDS011;16399;51.686;8.684;2023-05-10T03:45:17;6.83;;;4.80;;
29422;SDS011;16399;51.686;8.684;2023-05-10T03:48:19;8.93;;;4.78;;
29422;SDS011;16399;51.686;8.684;2023-05-10T03:51:22;7.08;;;4.65;;
29422;SDS011;16399;51.686;8.684;2023-05-10T03:54:26;7.80;;;5.47;;
29422;SDS011;16399;51.686;8.684;2023-05-10T03:57:28;8.20;;;5.25;;
29422;SDS011;16399;51.686;8.684;2023-05-10T04:00:30;8.43;;;5.33;;
29422;SDS011;16399;51.686;8.684;2023-05-10T04:03:33;9.15;;;5.97;;
29422;SDS011;16399;51.686;8.684;2023-05-10T04:06:37;9.43;;;6.42;;
29422;SDS011;16399;51.686;8.684;2023-05-10T04:09:40;8.25;;;5.83;;
29422;SDS011;16399;51.686;8.684;2023-05-10T04:12:42;7.97;;;5.67;;
29422;SDS011;16399;51.686;8.684;2023-05-10T04:15:44;9.55;;;6.35;;
29422;SDS011;16399;51.686;8.684;2023-05-10T04:18:47;7.80;;;5.83;;
29422;SDS011;16399;51.686;8.684;2023-05-10T04:21:49;9.15;;;6.05;;
29422;SDS011;16399;51.686;8.684;2023-05-10T04:24:51;9.38;;;6.42;;
29422;SDS011;16399;51.686;8.684;2023-05-10T04:27:53;7.20;;;5.05;;
29422;SDS011;16399;51.686;8.684;2023-05-10T04:31:02;7.10;;;4.75;;
29422;SDS011;16399;51.686;8.684;2023-05-10T04:34:09;5.87;;;4.15;;
29422;SDS011;16399;51.686;8.684;2023-05-10T04:37:11;6.45;;;3.85;;
29422;SDS011;16399;51.686;8.684;2023-05-10T04:40:13;5.55;;;3.72;;
29422;SDS011;16399;51.686;8.684;2023-05-10T04:43:16;4.40;;;3.08;;
29422;SDS011;16399;51.686;8.684;2023-05-10T04:46:18;4.78;;;3.05;;
29422;SDS011;16399;51.686;8.684;2023-05-10T04:49:20;4.90;;;3.00;;
29422;SDS011;16399;51.686;8.684;2023-05-10T04:52:23;4.42;;;2.55;;
29422;SDS011;16399;51.686;8.684;2023-05-10T04:55:25;5.37;;;2.75;;
29422;SDS011;16399;51.686;8.684;2023-05-10T04:58:27;5.92;;;2.52;;
29422;SDS011;16399;51.686;8.684;2023-05-10T05:01:30;4.00;;;2.27;;
29422;SDS011;16399;51.686;8.684;2023-05-10T05:04:32;3.47;;;2.12;;
29422;SDS011;16399;51.686;8.684;2023-05-10T05:07:34;4.00;;;1.90;;
29422;SDS011;16399;51.686;8.684;2023-05-10T05:10:37;3.67;;;2.50;;
29422;SDS011;16399;51.686;8.684;2023-05-10T05:13:40;3.87;;;2.00;;
29422;SDS011;16399;51.686;8.684;2023-05-10T05:16:42;3.92;;;2.12;;
29422;SDS011;16399;51.686;8.684;2023-05-10T05:19:44;3.35;;;2.37;;
29422;SDS011;16399;51.686;8.684;2023-05-10T05:22:46;3.33;;;2.00;;
29422;SDS011;16399;51.686;8.684;2023-05-10T05:25:49;4.45;;;2.40;;
29422;SDS011;16399;51.686;8.684;2023-05-10T05:28:54;4.37;;;2.62;;
29422;SDS011;16399;51.686;8.684;2023-05-10T05:31:56;4.28;;;2.70;;
29422;SDS011;16399;51.686;8.684;2023-05-10T05:34:58;4.35;;;2.85;;
29422;SDS011;16399;51.686;8.684;2023-05-10T05:38:01;4.95;;;2.70;;
29422;SDS011;16399;51.686;8.684;2023-05-10T05:41:03;4.03;;;2.55;;
29422;SDS011;16399;51.686;8.684;2023-05-10T05:44:05;5.78;;;2.45;;
29422;SDS011;16399;51.686;8.684;2023-05-10T05:47:08;3.45;;;2.00;;
29422;SDS011;16399;51.686;8.684;2023-05-10T05:50:11;3.65;;;1.87;;
29422;SDS011;16399;51.686;8.684;2023-05-10T05:53:13;2.67;;;1.82;;
29422;SDS011;16399;51.686;8.684;2023-05-10T05:56:16;6.00;;;1.70;;
29422;SDS011;16399;51.686;8.684;2023-05-10T05:59:20;3.93;;;1.70;;
29422;SDS011;16399;51.686;8.684;2023-05-10T06:02:22;3.45;;;1.50;;
29422;SDS011;16399;51.686;8.684;2023-05-10T06:05:24;4.37;;;1.98;;
29422;SDS011;16399;51.686;8.684;2023-05-10T06:08:27;3.33;;;1.62;;
29422;SDS011;16399;51.686;8.684;2023-05-10T06:11:29;4.25;;;1.67;;
29422;SDS011;16399;51.686;8.684;2023-05-10T06:14:32;3.83;;;2.00;;
29422;SDS011;16399;51.686;8.684;2023-05-10T06:17:35;3.15;;;1.85;;
29422;SDS011;16399;51.686;8.684;2023-05-10T06:20:37;2.85;;;1.57;;
29422;SDS011;16399;51.686;8.684;2023-05-10T06:23:39;3.75;;;1.37;;
29422;SDS011;16399;51.686;8.684;2023-05-10T06:26:41;2.67;;;1.40;;
29422;SDS011;16399;51.686;8.684;2023-05-10T06:29:44;3.25;;;1.45;;
29422;SDS011;16399;51.686;8.684;2023-05-10T06:32:46;2.58;;;1.32;;
29422;SDS011;16399;51.686;8.684;2023-05-10T06:35:48;5.65;;;1.50;;
29422;SDS011;16399;51.686;8.684;2023-05-10T06:38:51;4.90;;;1.60;;
29422;SDS011;16399;51.686;8.684;2023-05-10T06:41:53;3.52;;;1.50;;
29422;SDS011;16399;51.686;8.684;2023-05-10T06:44:55;3.55;;;1.80;;
29422;SDS011;16399;51.686;8.684;2023-05-10T06:47:57;5.15;;;1.80;;
29422;SDS011;16399;51.686;8.684;2023-05-10T06:51:00;5.12;;;1.67;;
29422;SDS011;16399;51.686;8.684;2023-05-10T06:54:02;6.45;;;1.62;;
29422;SDS011;16399;51.686;8.684;2023-05-10T06:57:04;3.40;;;1.75;;
29422;SDS011;16399;51.686;8.684;2023-05-10T07:00:07;4.72;;;2.00;;
29422;SDS011;16399;51.686;8.684;2023-05-10T07:03:10;4.60;;;2.22;;
29422;SDS011;16399;51.686;8.684;2023-05-10T07:06:13;5.35;;;2.25;;
29422;SDS011;16399;51.686;8.684;2023-05-10T07:09:15;3.37;;;1.98;;
29422;SDS011;16399;51.686;8.684;2023-05-10T07:12:17;5.72;;;2.45;;
29422;SDS011;16399;51.686;8.684;2023-05-10T07:15:20;4.50;;;2.30;;
29422;SDS011;16399;51.686;8.684;2023-05-10T07:18:22;6.70;;;2.77;;
29422;SDS011;16399;51.686;8.684;2023-05-10T07:21:25;4.80;;;2.35;;
29422;SDS011;16399;51.686;8.684;2023-05-10T07:24:29;4.60;;;2.30;;
29422;SDS011;16399;51.686;8.684;2023-05-10T07:27:31;7.10;;;2.90;;
29422;SDS011;16399;51.686;8.684;2023-05-10T07:30:34;7.42;;;3.05;;
29422;SDS011;16399;51.686;8.684;2023-05-10T07:33:36;5.62;;;3.08;;
29422;SDS011;16399;51.686;8.684;2023-05-10T07:36:38;5.62;;;3.70;;
29422;SDS011;16399;51.686;8.684;2023-05-10T07:39:41;7.03;;;3.83;;
29422;SDS011;16399;51.686;8.684;2023-05-10T07:42:43;6.55;;;3.67;;
29422;SDS011;16399;51.686;8.684;2023-05-10T07:45:45;8.33;;;4.22;;
29422;SDS011;16399;51.686;8.684;2023-05-10T07:48:47;8.63;;;4.90;;
29422;SDS011;16399;51.686;8.684;2023-05-10T07:51:50;11.00;;;5.15;;
29422;SDS011;16399;51.686;8.684;2023-05-10T07:54:52;8.65;;;4.87;;
29422;SDS011;16399;51.686;8.684;2023-05-10T07:57:55;10.08;;;5.90;;
29422;SDS011;16399;51.686;8.684;2023-05-10T08:00:57;10.00;;;6.35;;
29422;SDS011;16399;51.686;8.684;2023-05-10T08:03:59;10.90;;;6.33;;
29422;SDS011;16399;51.686;8.684;2023-05-10T08:07:02;11.40;;;7.70;;
29422;SDS011;16399;51.686;8.684;2023-05-10T08:10:05;11.65;;;7.65;;
29422;SDS011;16399;51.686;8.684;2023-05-10T08:13:08;13.05;;;8.55;;
29422;SDS011;16399;51.686;8.684;2023-05-10T08:16:10;15.15;;;8.93;;
29422;SDS011;16399;51.686;8.684;2023-05-10T08:19:13;18.50;;;10.98;;
29422;SDS011;16399;51.686;8.684;2023-05-10T08:22:17;16.00;;;10.03;;
29422;SDS011;16399;51.686;8.684;2023-05-10T08:25:19;20.60;;;12.58;;
29422;SDS011;16399;51.686;8.684;2023-05-10T08:28:21;19.98;;;12.88;;
29422;SDS011;16399;51.686;8.684;2023-05-10T08:31:24;20.02;;;13.03;;
29422;SDS011;16399;51.686;8.684;2023-05-10T08:34:26;22.35;;;13.35;;
29422;SDS011;16399;51.686;8.684;2023-05-10T08:37:31;22.42;;;13.40;;
29422;SDS011;16399;51.686;8.684;2023-05-10T08:40:34;23.45;;;13.90;;
29422;SDS011;16399;51.686;8.684;2023-05-10T08:43:38;23.98;;;13.60;;
29422;SDS011;16399;51.686;8.684;2023-05-10T08:49:46;25.15;;;14.13;;
29422;SDS011;16399;51.686;8.684;2023-05-10T08:52:51;25.45;;;14.53;;
29422;SDS011;16399;51.686;8.684;2023-05-10T08:55:57;23.75;;;14.33;;
29422;SDS011;16399;51.686;8.684;2023-05-10T08:59:00;21.10;;;13.85;;
29422;SDS011;16399;51.686;8.684;2023-05-10T09:02:02;23.62;;;15.20;;
29422;SDS011;16399;51.686;8.684;2023-05-10T09:05:07;24.32;;;15.43;;
29422;SDS011;16399;51.686;8.684;2023-05-10T09:08:11;24.70;;;14.30;;
29422;SDS011;16399;51.686;8.684;2023-05-10T09:11:14;26.93;;;15.63;;
29422;SDS011;16399;51.686;8.684;2023-05-10T09:14:18;26.15;;;15.98;;
29422;SDS011;16399;51.686;8.684;2023-05-10T09:17:22;29.80;;;17.85;;
29422;SDS011;16399;51.686;8.684;2023-05-10T09:20:26;28.38;;;16.55;;
29422;SDS011;16399;51.686;8.684;2023-05-10T09:23:28;23.70;;;16.45;;
29422;SDS011;16399;51.686;8.684;2023-05-10T09:26:32;26.60;;;16.32;;
29422;SDS011;16399;51.686;8.684;2023-05-10T09:29:42;26.73;;;16.40;;
29422;SDS011;16399;51.686;8.684;2023-05-10T09:32:47;26.50;;;16.07;;
29422;SDS011;16399;51.686;8.684;2023-05-10T09:35:51;27.05;;;17.20;;
29422;SDS011;16399;51.686;8.684;2023-05-10T09:38:54;25.87;;;16.27;;
29422;SDS011;16399;51.686;8.684;2023-05-10T09:41:57;23.32;;;15.68;;
29422;SDS011;16399;51.686;8.684;2023-05-10T09:45:02;26.82;;;17.02;;
29422;SDS011;16399;51.686;8.684;2023-05-10T09:48:05;28.42;;;16.52;;
29422;SDS011;16399;51.686;8.684;2023-05-10T09:51:08;31.23;;;18.42;;
29422;SDS011;16399;51.686;8.684;2023-05-10T09:54:11;28.75;;;17.87;;
29422;SDS011;16399;51.686;8.684;2023-05-10T09:57:19;27.52;;;17.20;;
29422;SDS011;16399;51.686;8.684;2023-05-10T10:00:22;31.25;;;19.23;;
29422;SDS011;16399;51.686;8.684;2023-05-10T10:03:25;27.15;;;16.95;;
29422;SDS011;16399;51.686;8.684;2023-05-10T10:06:27;26.37;;;17.55;;
29422;SDS011;16399;51.686;8.684;2023-05-10T10:09:29;27.02;;;17.90;;
29422;SDS011;16399;51.686;8.684;2023-05-10T10:12:33;26.20;;;16.90;;
29422;SDS011;16399;51.686;8.684;2023-05-10T10:15:36;26.90;;;17.65;;
29422;SDS011;16399;51.686;8.684;2023-05-10T10:18:39;22.75;;;14.95;;
29422;SDS011;16399;51.686;8.684;2023-05-10T10:21:42;27.65;;;17.45;;
29422;SDS011;16399;51.686;8.684;2023-05-10T10:24:44;24.52;;;16.37;;
29422;SDS011;16399;51.686;8.684;2023-05-10T10:31:00;28.60;;;17.50;;
29422;SDS011;16399;51.686;8.684;2023-05-10T10:34:05;27.25;;;18.60;;
29422;SDS011;16399;51.686;8.684;2023-05-10T10:37:08;28.05;;;18.02;;
29422;SDS011;16399;51.686;8.684;2023-05-10T10:40:30;28.15;;;17.87;;
29422;SDS011;16399;51.686;8.684;2023-05-10T10:43:35;26.62;;;17.75;;
29422;SDS011;16399;51.686;8.684;2023-05-10T10:46:58;22.85;;;14.20;;
29422;SDS011;16399;51.686;8.684;2023-05-10T10:53:10;20.92;;;14.50;;
29422;SDS011;16399;51.686;8.684;2023-05-10T10:56:12;24.00;;;15.05;;
29422;SDS011;16399;51.686;8.684;2023-05-10T10:59:26;17.80;;;12.75;;
29422;SDS011;16399;51.686;8.684;2023-05-10T11:02:33;19.37;;;13.43;;
29422;SDS011;16399;51.686;8.684;2023-05-10T11:05:38;19.70;;;13.78;;
29422;SDS011;16399;51.686;8.684;2023-05-10T11:08:42;19.90;;;14.93;;
29422;SDS011;16399;51.686;8.684;2023-05-10T11:11:48;20.35;;;14.55;;
29422;SDS011;16399;51.686;8.684;2023-05-10T11:14:52;24.52;;;16.15;;
29422;SDS011;16399;51.686;8.684;2023-05-10T11:17:58;26.48;;;16.35;;
29422;SDS011;16399;51.686;8.684;2023-05-10T11:21:00;24.77;;;17.45;;
29422;SDS011;16399;51.686;8.684;2023-05-10T11:24:10;26.23;;;16.48;;
29422;SDS011;16399;51.686;8.684;2023-05-10T11:27:10;25.32;;;16.55;;
29422;SDS011;16399;51.686;8.684;2023-05-10T11:30:14;26.68;;;17.15;;
29422;SDS011;16399;51.686;8.684;2023-05-10T11:33:16;24.92;;;15.32;;
29422;SDS011;16399;51.686;8.684;2023-05-10T11:36:26;24.80;;;16.62;;
29422;SDS011;16399;51.686;8.684;2023-05-10T11:39:30;24.35;;;15.90;;
29422;SDS011;16399;51.686;8.684;2023-05-10T11:45:35;25.57;;;16.57;;
29422;SDS011;16399;51.686;8.684;2023-05-10T11:48:38;22.07;;;15.00;;
29422;SDS011;16399;51.686;8.684;2023-05-10T11:51:41;25.00;;;16.32;;
29422;SDS011;16399;51.686;8.684;2023-05-10T11:54:53;21.82;;;14.70;;
29422;SDS011;16399;51.686;8.684;2023-05-10T11:57:59;24.75;;;14.33;;
29422;SDS011;16399;51.686;8.684;2023-05-10T12:01:02;22.35;;;14.90;;
29422;SDS011;16399;51.686;8.684;2023-05-10T12:04:05;14.73;;;9.83;;
29422;SDS011;16399;51.686;8.684;2023-05-10T12:07:08;11.95;;;7.55;;
29422;SDS011;16399;51.686;8.684;2023-05-10T12:10:11;9.05;;;6.42;;
29422;SDS011;16399;51.686;8.684;2023-05-10T12:13:15;10.90;;;6.72;;
29422;SDS011;16399;51.686;8.684;2023-05-10T12:16:28;8.58;;;5.25;;
29422;SDS011;16399;51.686;8.684;2023-05-10T12:19:25;12.75;;;4.67;;
29422;SDS011;16399;51.686;8.684;2023-05-10T12:22:27;8.33;;;4.90;;
29422;SDS011;16399;51.686;8.684;2023-05-10T12:25:31;8.38;;;4.20;;
29422;SDS011;16399;51.686;8.684;2023-05-10T12:28:34;5.78;;;3.87;;
29422;SDS011;16399;51.686;8.684;2023-05-10T12:31:54;5.62;;;3.65;;
29422;SDS011;16399;51.686;8.684;2023-05-10T12:34:58;9.75;;;5.97;;
29422;SDS011;16399;51.686;8.684;2023-05-10T12:38:00;10.85;;;6.03;;
29422;SDS011;16399;51.686;8.684;2023-05-10T12:41:08;10.17;;;5.87;;
29422;SDS011;16399;51.686;8.684;2023-05-10T12:44:11;10.53;;;6.33;;
29422;SDS011;16399;51.686;8.684;2023-05-10T12:47:13;9.85;;;6.15;;
29422;SDS011;16399;51.686;8.684;2023-05-10T12:50:16;10.08;;;6.67;;
29422;SDS011;16399;51.686;8.684;2023-05-10T12:53:18;10.30;;;6.33;;
29422;SDS011;16399;51.686;8.684;2023-05-10T12:56:20;9.58;;;7.00;;
29422;SDS011;16399;51.686;8.684;2023-05-10T12:59:23;13.45;;;7.47;;
29422;SDS011;16399;51.686;8.684;2023-05-10T13:02:25;9.75;;;6.45;;
29422;SDS011;16399;51.686;8.684;2023-05-10T13:05:27;7.42;;;5.40;;
29422;SDS011;16399;51.686;8.684;2023-05-10T13:08:30;7.90;;;5.50;;
29422;SDS011;16399;51.686;8.684;2023-05-10T13:11:33;9.47;;;5.83;;
29422;SDS011;16399;51.686;8.684;2023-05-10T13:14:37;11.15;;;5.83;;
29422;SDS011;16399;51.686;8.684;2023-05-10T13:17:41;8.83;;;5.85;;
29422;SDS011;16399;51.686;8.684;2023-05-10T13:20:44;10.13;;;7.12;;
29422;SDS011;16399;51.686;8.684;2023-05-10T13:23:46;9.78;;;6.08;;
29422;SDS011;16399;51.686;8.684;2023-05-10T13:26:48;8.73;;;5.75;;
29422;SDS011;16399;51.686;8.684;2023-05-10T13:29:50;10.95;;;6.15;;
29422;SDS011;16399;51.686;8.684;2023-05-10T13:32:53;13.65;;;7.97;;
29422;SDS011;16399;51.686;8.684;2023-05-10T13:35:55;9.55;;;6.25;;
29422;SDS011;16399;51.686;8.684;2023-05-10T13:38:57;11.68;;;7.70;;
29422;SDS011;16399;51.686;8.684;2023-05-10T13:42:01;15.38;;;10.40;;
29422;SDS011;16399;51.686;8.684;2023-05-10T13:45:04;17.35;;;11.03;;
29422;SDS011;16399;51.686;8.684;2023-05-10T13:48:07;17.73;;;11.30;;
29422;SDS011;16399;51.686;8.684;2023-05-10T13:51:09;19.57;;;11.80;;
29422;SDS011;16399;51.686;8.684;2023-05-10T13:54:11;16.90;;;11.35;;
29422;SDS011;16399;51.686;8.684;2023-05-10T13:57:13;20.68;;;12.73;;
29422;SDS011;16399;51.686;8.684;2023-05-10T14:00:17;20.17;;;12.45;;
29422;SDS011;16399;51.686;8.684;2023-05-10T14:03:19;19.02;;;12.78;;
29422;SDS011;16399;51.686;8.684;2023-05-10T14:06:21;14.70;;;9.03;;
29422;SDS011;16399;51.686;8.684;2023-05-10T14:09:24;24.00;;;11.70;;
29422;SDS011;16399;51.686;8.684;2023-05-10T14:12:26;18.02;;;9.48;;
29422;SDS011;16399;51.686;8.684;2023-05-10T14:15:29;13.80;;;8.23;;
29422;SDS011;16399;51.686;8.684;2023-05-10T14:18:31;18.57;;;8.90;;
29422;SDS011;16399;51.686;8.684;2023-05-10T14:21:34;15.60;;;9.45;;
29422;SDS011;16399;51.686;8.684;2023-05-10T14:24:37;20.20;;;11.57;;
29422;SDS011;16399;51.686;8.684;2023-05-10T14:27:39;17.70;;;11.25;;
29422;SDS011;16399;51.686;8.684;2023-05-10T14:30:42;18.82;;;11.43;;
29422;SDS011;16399;51.686;8.684;2023-05-10T14:33:44;22.48;;;12.40;;
29422;SDS011;16399;51.686;8.684;2023-05-10T14:36:46;19.92;;;11.65;;
29422;SDS011;16399;51.686;8.684;2023-05-10T14:39:49;19.05;;;11.80;;
29422;SDS011;16399;51.686;8.684;2023-05-10T14:42:51;19.45;;;11.35;;
29422;SDS011;16399;51.686;8.684;2023-05-10T14:45:53;17.98;;;10.80;;
29422;SDS011;16399;51.686;8.684;2023-05-10T14:48:56;27.35;;;10.68;;
29422;SDS011;16399;51.686;8.684;2023-05-10T14:51:58;20.43;;;11.63;;
29422;SDS011;16399;51.686;8.684;2023-05-10T14:55:00;18.52;;;11.38;;
29422;SDS011;16399;51.686;8.684;2023-05-10T14:58:03;19.57;;;12.00;;
29422;SDS011;16399;51.686;8.684;2023-05-10T15:01:05;16.35;;;11.22;;
29422;SDS011;16399;51.686;8.684;2023-05-10T15:04:07;20.32;;;10.48;;
29422;SDS011;16399;51.686;8.684;2023-05-10T15:07:10;16.62;;;10.20;;
29422;SDS011;16399;51.686;8.684;2023-05-10T15:10:14;19.27;;;11.18;;
29422;SDS011;16399;51.686;8.684;2023-05-10T15:13:16;18.48;;;10.20;;
29422;SDS011;16399;51.686;8.684;2023-05-10T15:16:18;16.48;;;10.05;;
29422;SDS011;16399;51.686;8.684;2023-05-10T15:19:21;15.05;;;9.78;;
29422;SDS011;16399;51.686;8.684;2023-05-10T15:22:23;13.43;;;7.92;;
29422;SDS011;16399;51.686;8.684;2023-05-10T15:25:26;13.15;;;8.70;;
29422;SDS011;16399;51.686;8.684;2023-05-10T15:28:29;11.68;;;7.80;;
29422;SDS011;16399;51.686;8.684;2023-05-10T15:31:31;12.58;;;7.97;;
29422;SDS011;16399;51.686;8.684;2023-05-10T15:34:35;15.75;;;7.33;;
29422;SDS011;16399;51.686;8.684;2023-05-10T15:37:37;11.90;;;7.75;;
29422;SDS011;16399;51.686;8.684;2023-05-10T15:40:40;14.95;;;7.97;;
29422;SDS011;16399;51.686;8.684;2023-05-10T15:43:42;13.48;;;8.60;;
29422;SDS011;16399;51.686;8.684;2023-05-10T15:46:44;12.70;;;8.28;;
29422;SDS011;16399;51.686;8.684;2023-05-10T15:49:47;12.73;;;8.18;;
29422;SDS011;16399;51.686;8.684;2023-05-10T15:52:49;13.00;;;7.08;;
29422;SDS011;16399;51.686;8.684;2023-05-10T15:55:52;13.18;;;7.37;;
29422;SDS011;16399;51.686;8.684;2023-05-10T15:58:54;14.95;;;8.48;;
29422;SDS011;16399;51.686;8.684;2023-05-10T16:01:56;18.10;;;8.93;;
29422;SDS011;16399;51.686;8.684;2023-05-10T16:04:59;22.82;;;9.10;;
29422;SDS011;16399;51.686;8.684;2023-05-10T16:08:01;17.98;;;9.03;;
29422;SDS011;16399;51.686;8.684;2023-05-10T16:11:03;17.67;;;9.63;;
29422;SDS011;16399;51.686;8.684;2023-05-10T16:14:07;17.45;;;10.32;;
29422;SDS011;16399;51.686;8.684;2023-05-10T16:17:10;15.95;;;9.78;;
29422;SDS011;16399;51.686;8.684;2023-05-10T16:20:12;14.35;;;8.73;;
29422;SDS011;16399;51.686;8.684;2023-05-10T16:23:14;12.30;;;7.47;;
29422;SDS011;16399;51.686;8.684;2023-05-10T16:26:16;17.62;;;7.87;;
29422;SDS011;16399;51.686;8.684;2023-05-10T16:29:19;14.03;;;9.03;;
29422;SDS011;16399;51.686;8.684;2023-05-10T16:32:21;18.48;;;8.88;;
29422;SDS011;16399;51.686;8.684;2023-05-10T16:35:23;15.85;;;9.15;;
29422;SDS011;16399;51.686;8.684;2023-05-10T16:38:26;14.30;;;8.80;;
29422;SDS011;16399;51.686;8.684;2023-05-10T16:41:31;15.83;;;8.73;;
29422;SDS011;16399;51.686;8.684;2023-05-10T16:44:35;14.80;;;8.13;;
29422;SDS011;16399;51.686;8.684;2023-05-10T16:47:38;17.55;;;8.48;;
29422;SDS011;16399;51.686;8.684;2023-05-10T16:50:43;16.15;;;8.25;;
29422;SDS011;16399;51.686;8.684;2023-05-10T16:53:46;12.20;;;7.58;;
29422;SDS011;16399;51.686;8.684;2023-05-10T16:56:48;14.80;;;8.05;;
29422;SDS011;16399;51.686;8.684;2023-05-10T16:59:50;11.38;;;6.65;;
29422;SDS011;16399;51.686;8.684;2023-05-10T17:02:55;11.00;;;6.05;;
29422;SDS011;16399;51.686;8.684;2023-05-10T17:05:58;12.40;;;6.15;;
29422;SDS011;16399;51.686;8.684;2023-05-10T17:09:00;12.35;;;5.50;;
29422;SDS011;16399;51.686;8.684;2023-05-10T17:12:03;11.20;;;5.75;;
29422;SDS011;16399;51.686;8.684;2023-05-10T17:15:05;11.95;;;5.92;;
29422;SDS011;16399;51.686;8.684;2023-05-10T17:18:08;9.28;;;5.70;;
29422;SDS011;16399;51.686;8.684;2023-05-10T17:21:11;10.25;;;5.35;;
29422;SDS011;16399;51.686;8.684;2023-05-10T17:24:13;9.63;;;5.25;;
29422;SDS011;16399;51.686;8.684;2023-05-10T17:27:15;12.50;;;5.80;;
29422;SDS011;16399;51.686;8.684;2023-05-10T17:30:18;10.82;;;5.60;;
29422;SDS011;16399;51.686;8.684;2023-05-10T17:33:22;12.25;;;5.42;;
29422;SDS011;16399;51.686;8.684;2023-05-10T17:36:24;11.83;;;5.55;;
29422;SDS011;16399;51.686;8.684;2023-05-10T17:39:27;9.23;;;5.25;;
29422;SDS011;16399;51.686;8.684;2023-05-10T17:42:30;11.43;;;5.67;;
29422;SDS011;16399;51.686;8.684;2023-05-10T17:45:32;7.62;;;4.87;;
29422;SDS011;16399;51.686;8.684;2023-05-10T17:48:35;12.35;;;5.10;;
29422;SDS011;16399;51.686;8.684;2023-05-10T17:51:37;8.85;;;4.45;;
29422;SDS011;16399;51.686;8.684;2023-05-10T17:54:41;8.20;;;4.90;;
29422;SDS011;16399;51.686;8.684;2023-05-10T17:57:43;6.97;;;3.98;;
29422;SDS011;16399;51.686;8.684;2023-05-10T18:00:46;10.08;;;4.67;;
29422;SDS011;16399;51.686;8.684;2023-05-10T18:03:48;9.28;;;4.37;;
29422;SDS011;16399;51.686;8.684;2023-05-10T18:06:51;8.60;;;4.60;;
29422;SDS011;16399;51.686;8.684;2023-05-10T18:09:55;8.07;;;4.33;;
29422;SDS011;16399;51.686;8.684;2023-05-10T18:12:58;7.97;;;4.42;;
29422;SDS011;16399;51.686;8.684;2023-05-10T18:16:01;8.28;;;4.40;;
29422;SDS011;16399;51.686;8.684;2023-05-10T18:19:05;7.35;;;4.10;;
29422;SDS011;16399;51.686;8.684;2023-05-10T18:22:07;7.83;;;4.17;;
29422;SDS011;16399;51.686;8.684;2023-05-10T18:25:10;7.08;;;4.40;;
29422;SDS011;16399;51.686;8.684;2023-05-10T18:28:12;5.92;;;3.72;;
29422;SDS011;16399;51.686;8.684;2023-05-10T18:31:14;9.15;;;4.45;;
29422;SDS011;16399;51.686;8.684;2023-05-10T18:34:16;7.10;;;4.10;;
29422;SDS011;16399;51.686;8.684;2023-05-10T18:37:19;9.58;;;4.22;;